Rehoboth Beach, Delaware
Current Conditions -  °F | °C
As of 10:54 PM on Wednesday 26 Nov 2014 (Local Time) from KGED Reporting Station
Overcast Overcast  
Wind Chill: 33°   Ceiling: 1200
Heat Index: 38°   Visibility: 10mi
Dew Point: 34°   Wind: 7mph
Humidity: 86%   Direction: NA
Pressure: 29.96"   Gusts: NA
Location:  38.72°N, 75.08°W
Report Text: KGED 270354Z AUTO VRB06KT 10SM OVC012 03/01 A2996 RMK AO2 SLP145 T00330011
Loading
Personal Weather Stations






























Interactive Weather Map New forecast layout! Learn more

10-Day Weather Forecast

Advertisements
Track Severe Weather on mobile